createdAt,value
2022-12-16T00:02:26.572Z,100170.23
2022-12-16T00:04:59.178Z,100164.50
2022-12-16T00:07:30.848Z,100161.84
2022-12-16T00:10:02.547Z,100164.70
2022-12-16T00:12:34.537Z,100164.22
2022-12-16T00:15:07.050Z,100170.23
2022-12-16T00:17:40.644Z,100174.86
2022-12-16T00:20:13.957Z,100173.02
2022-12-16T00:22:45.718Z,100173.05
2022-12-16T00:25:17.489Z,100174.65
2022-12-16T00:27:49.230Z,100174.82
2022-12-16T00:30:20.953Z,100181.55
2022-12-16T00:32:52.548Z,100191.95
2022-12-16T00:35:25.322Z,100188.75
2022-12-16T00:37:57.027Z,100198.09
2022-12-16T00:40:28.967Z,100202.44
2022-12-16T00:43:00.638Z,100209.58
2022-12-16T00:45:32.680Z,100210.61
2022-12-16T00:48:04.540Z,100214.11
2022-12-16T00:50:36.587Z,100212.91
2022-12-16T00:53:08.658Z,100210.23
2022-12-16T00:55:40.343Z,100208.00
2022-12-16T00:58:12.043Z,100196.89
2022-12-16T01:00:43.897Z,100192.90
2022-12-16T01:03:21.095Z,100180.71
2022-12-16T01:05:53.575Z,100189.44
2022-12-16T01:08:24.428Z,100191.58
2022-12-16T01:10:58.222Z,100191.59
2022-12-16T01:13:30.517Z,100187.19
2022-12-16T01:16:04.520Z,100186.73
2022-12-16T01:18:36.428Z,100186.36
2022-12-16T01:21:09.758Z,100189.36
2022-12-16T01:23:41.915Z,100189.38
2022-12-16T01:26:17.388Z,100181.09
2022-12-16T01:28:50.194Z,100179.05
2022-12-16T01:31:24.564Z,100170.98
2022-12-16T01:33:56.468Z,100167.35
2022-12-16T01:36:31.707Z,100167.55
2022-12-16T01:39:03.365Z,100172.02
2022-12-16T01:41:34.955Z,100167.10
2022-12-16T01:44:18.057Z,100167.34
2022-12-16T01:46:54.717Z,100167.87
2022-12-16T01:49:31.885Z,100162.33
2022-12-16T01:52:06.541Z,100163.48
2022-12-16T01:54:43.334Z,100166.55
2022-12-16T01:57:18.574Z,100165.97
2022-12-16T01:59:52.856Z,100168.23
2022-12-16T02:02:25.053Z,100170.40
2022-12-16T02:05:27.648Z,100166.73
2022-12-16T02:08:03.318Z,100164.37
2022-12-16T02:10:47.136Z,100163.70
2022-12-16T02:13:26.207Z,100148.84
2022-12-16T02:16:07.550Z,100138.49
2022-12-16T02:18:52.397Z,100131.55
2022-12-16T02:21:40.212Z,100130.23
2022-12-16T02:24:42.336Z,100125.41
2022-12-16T02:27:55.060Z,100130.30
2022-12-16T02:30:47.314Z,100138.81
2022-12-16T02:33:33.947Z,100141.75
2022-12-16T02:36:13.394Z,100137.94
2022-12-16T02:38:56.099Z,100131.98
2022-12-16T02:41:37.553Z,100122.89
2022-12-16T02:44:12.315Z,100115.90
2022-12-16T02:46:52.746Z,100113.81
2022-12-16T02:49:40.535Z,100116.59
2022-12-16T02:52:12.717Z,100112.63
2022-12-16T02:54:44.988Z,100106.50
2022-12-16T02:57:21.815Z,100112.63
2022-12-16T03:00:00.906Z,100111.22
2022-12-16T03:02:42.757Z,100101.19
2022-12-16T03:05:21.433Z,100105.69
2022-12-16T03:07:56.787Z,100102.13
2022-12-16T03:10:33.709Z,100105.34
2022-12-16T03:13:08.475Z,100101.41
2022-12-16T03:15:42.497Z,100097.92
2022-12-16T03:18:15.503Z,100096.09
2022-12-16T03:20:51.778Z,100097.64
2022-12-16T03:23:30.347Z,100099.30
2022-12-16T03:26:09.165Z,100099.55
2022-12-16T03:28:49.506Z,100106.81
2022-12-16T03:31:31.449Z,100107.58
2022-12-16T03:34:11.647Z,100105.20
2022-12-16T03:36:45.284Z,100098.48
2022-12-16T03:39:19.066Z,100094.71
2022-12-16T03:41:53.848Z,100091.52
2022-12-16T03:44:26.299Z,100092.14
2022-12-16T03:46:58.234Z,100091.21
2022-12-16T03:49:30.137Z,100089.90
2022-12-16T03:52:02.029Z,100093.77
2022-12-16T03:54:33.899Z,100087.25
2022-12-16T03:57:07.321Z,100084.02
2022-12-16T03:59:41.039Z,100081.20
2022-12-16T04:02:12.787Z,100078.40
2022-12-16T04:04:44.646Z,100083.10
2022-12-16T04:07:24.672Z,100080.98
2022-12-16T04:09:56.539Z,100083.25
2022-12-16T04:12:46.072Z,100081.96
2022-12-16T04:15:35.656Z,100078.72
2022-12-16T04:18:31.787Z,100081.60
2022-12-16T04:21:21.534Z,100077.75
2022-12-16T04:24:14.118Z,100076.39
2022-12-16T04:27:03.316Z,100080.65
2022-12-16T04:29:55.587Z,100080.74
2022-12-16T04:32:27.841Z,100072.34
2022-12-16T04:35:13.460Z,100071.86
2022-12-16T04:38:04.596Z,100068.77
2022-12-16T04:40:53.601Z,100070.55
2022-12-16T04:43:44.409Z,100072.70
2022-12-16T04:46:33.446Z,100074.90
2022-12-16T04:49:22.489Z,100074.88
2022-12-16T04:52:11.475Z,100073.58
2022-12-16T04:55:00.705Z,100067.12
2022-12-16T04:57:50.212Z,100061.16
2022-12-16T05:00:39.449Z,100067.15
2022-12-16T05:03:28.729Z,100066.61
2022-12-16T05:06:17.887Z,100068.90
2022-12-16T05:09:06.781Z,100077.29
2022-12-16T05:11:56.255Z,100077.05
2022-12-16T05:14:45.513Z,100081.30
2022-12-16T05:17:35.300Z,100077.63
2022-12-16T05:20:25.975Z,100082.90
2022-12-16T05:23:16.982Z,100090.20
2022-12-16T05:26:06.148Z,100090.23
2022-12-16T05:28:54.993Z,100096.69
2022-12-16T05:31:44.026Z,100101.39
2022-12-16T05:34:32.795Z,100105.92
2022-12-16T05:37:21.881Z,100101.09
2022-12-16T05:40:10.957Z,100111.53
2022-12-16T05:43:03.210Z,100110.04
2022-12-16T05:45:52.803Z,100118.92
2022-12-16T05:48:47.488Z,100123.85
2022-12-16T05:51:36.897Z,100120.46
2022-12-16T05:54:26.260Z,100128.08
2022-12-16T05:57:15.065Z,100138.66
2022-12-16T06:00:04.088Z,100139.48
2022-12-16T06:03:01.304Z,100150.33
2022-12-16T06:05:50.136Z,100144.94
2022-12-16T06:08:38.967Z,100146.61
2022-12-16T06:11:28.266Z,100154.73
2022-12-16T06:14:16.953Z,100157.65
2022-12-16T06:17:06.247Z,100159.86
2022-12-16T06:19:55.632Z,100169.42
2022-12-16T06:22:55.875Z,100172.11
2022-12-16T06:25:44.975Z,100179.25
2022-12-16T06:28:34.033Z,100178.59
2022-12-16T06:31:23.500Z,100174.97
2022-12-16T06:34:12.732Z,100170.27
2022-12-16T06:37:01.728Z,100173.41
2022-12-16T06:39:53.081Z,100170.52
2022-12-16T06:42:47.939Z,100171.55
2022-12-16T06:45:36.662Z,100175.70
2022-12-16T06:48:26.536Z,100181.11
2022-12-16T06:51:15.807Z,100187.47
2022-12-16T06:54:05.120Z,100188.19
2022-12-16T06:56:54.393Z,100194.77
2022-12-16T06:59:43.831Z,100192.52
2022-12-16T07:02:29.490Z,100193.98
2022-12-16T07:05:19.108Z,100192.68
2022-12-16T07:08:10.660Z,100190.88
2022-12-16T07:11:13.841Z,100194.44
2022-12-16T07:14:05.921Z,100198.23
2022-12-16T07:16:55.444Z,100200.59
2022-12-16T07:19:44.999Z,100200.95
2022-12-16T07:22:34.065Z,100205.32
2022-12-16T07:25:23.668Z,100205.36
2022-12-16T07:28:21.477Z,100213.98
2022-12-16T07:31:11.135Z,100213.23
2022-12-16T07:34:01.283Z,100215.30
2022-12-16T07:36:51.339Z,100221.80
2022-12-16T07:39:40.882Z,100218.33
2022-12-16T07:42:29.993Z,100218.54
2022-12-16T07:45:18.813Z,100218.95
2022-12-16T07:48:08.894Z,100222.72
2022-12-16T07:50:58.572Z,100227.01
2022-12-16T07:53:48.123Z,100224.15
2022-12-16T07:56:36.880Z,100222.20
2022-12-16T07:59:22.616Z,100217.90
2022-12-16T08:02:11.860Z,100213.59
2022-12-16T08:05:01.030Z,100210.60
2022-12-16T08:07:50.183Z,100208.77
2022-12-16T08:10:39.238Z,100210.45
2022-12-16T08:13:28.400Z,100210.66
2022-12-16T08:16:18.112Z,100216.29
2022-12-16T08:19:11.041Z,100217.98
2022-12-16T08:22:00.395Z,100217.63
2022-12-16T08:25:06.517Z,100217.98
2022-12-16T08:27:57.826Z,100218.95
2022-12-16T08:30:58.194Z,100219.30
2022-12-16T08:33:47.509Z,100221.20
2022-12-16T08:36:36.469Z,100227.35
2022-12-16T08:39:25.689Z,100231.23
2022-12-16T08:42:19.845Z,100234.11
2022-12-16T08:45:09.158Z,100229.42
2022-12-16T08:47:59.060Z,100228.91
2022-12-16T08:50:48.353Z,100228.58
2022-12-16T08:53:37.700Z,100229.11
2022-12-16T08:56:27.470Z,100228.98
2022-12-16T08:59:16.850Z,100233.95
2022-12-16T09:02:06.305Z,100233.61
2022-12-16T09:04:58.560Z,100228.45
2022-12-16T09:07:47.782Z,100233.57
2022-12-16T09:10:40.432Z,100231.98
2022-12-16T09:13:32.524Z,100229.78
2022-12-16T09:16:22.360Z,100227.55
2022-12-16T09:19:11.573Z,100225.77
2022-12-16T09:22:00.836Z,100224.69
2022-12-16T09:24:50.235Z,100224.95
2022-12-16T09:27:42.244Z,100224.64
2022-12-16T09:30:32.419Z,100222.39
2022-12-16T09:33:23.188Z,100218.69
2022-12-16T09:36:12.037Z,100215.33
2022-12-16T09:39:01.105Z,100214.46
2022-12-16T09:42:00.912Z,100212.01
2022-12-16T09:44:59.735Z,100215.73
2022-12-16T09:47:58.487Z,100215.48
2022-12-16T09:50:50.031Z,100216.65
2022-12-16T09:53:40.427Z,100211.30
2022-12-16T09:56:37.040Z,100215.38
2022-12-16T09:59:33.206Z,100215.77
2022-12-16T10:02:27.762Z,100217.17
2022-12-16T10:05:17.880Z,100217.80
2022-12-16T10:08:18.909Z,100215.92
2022-12-16T10:11:14.449Z,100215.10
2022-12-16T10:14:17.876Z,100211.52
2022-12-16T10:17:15.002Z,100208.64
2022-12-16T10:20:12.580Z,100209.61
2022-12-16T10:23:09.564Z,100208.56
2022-12-16T10:26:04.559Z,100211.33
2022-12-16T10:29:04.705Z,100212.29
2022-12-16T10:31:55.505Z,100213.66
2022-12-16T10:34:49.110Z,100221.40
2022-12-16T10:37:46.802Z,100223.60
2022-12-16T10:40:40.443Z,100221.05
2022-12-16T10:43:36.648Z,100219.64
2022-12-16T10:46:35.217Z,100218.59
2022-12-16T10:49:24.200Z,100215.83
2022-12-16T10:52:13.768Z,100213.21
2022-12-16T10:55:10.165Z,100214.02
2022-12-16T10:58:14.397Z,100214.76
2022-12-16T11:01:06.008Z,100217.42
2022-12-16T11:03:56.395Z,100219.64
2022-12-16T11:06:55.241Z,100219.81
2022-12-16T11:09:49.848Z,100221.83
2022-12-16T11:12:44.339Z,100218.19
2022-12-16T11:15:46.072Z,100215.39
2022-12-16T11:18:37.329Z,100214.30
2022-12-16T11:21:34.094Z,100223.32
2022-12-16T11:24:37.068Z,100225.07
2022-12-16T11:27:34.809Z,100226.35
2022-12-16T11:30:36.286Z,100229.18
2022-12-16T11:33:35.733Z,100233.46
2022-12-16T11:36:33.005Z,100237.46
2022-12-16T11:39:22.927Z,100237.00
2022-12-16T11:42:13.672Z,100243.24
2022-12-16T11:45:06.366Z,100239.98
2022-12-16T11:48:01.747Z,100244.71
2022-12-16T11:50:53.890Z,100257.45
2022-12-16T11:53:53.895Z,100262.08
2022-12-16T11:56:48.289Z,100256.46
2022-12-16T11:59:46.471Z,100247.73
2022-12-16T12:02:41.455Z,100243.40
2022-12-16T12:05:33.852Z,100250.45
2022-12-16T12:08:31.870Z,100259.73
2022-12-16T12:11:33.755Z,100263.11
2022-12-16T12:14:33.034Z,100268.66
2022-12-16T12:17:36.613Z,100272.86
2022-12-16T12:20:46.527Z,100273.27
2022-12-16T12:24:04.069Z,100273.16
2022-12-16T12:26:56.252Z,100282.48
2022-12-16T12:29:53.092Z,100290.10
2022-12-16T12:32:52.246Z,100287.76
2022-12-16T12:35:59.593Z,100286.31
2022-12-16T12:38:57.951Z,100287.53
2022-12-16T12:41:54.802Z,100293.89
2022-12-16T12:44:57.631Z,100297.17
2022-12-16T12:47:48.761Z,100302.52
2022-12-16T12:50:46.565Z,100296.83
2022-12-16T12:53:46.031Z,100298.56
2022-12-16T12:56:43.733Z,100294.17
2022-12-16T12:59:40.182Z,100299.52
2022-12-16T13:02:36.832Z,100309.23
2022-12-16T13:05:31.074Z,100306.42
2022-12-16T13:09:00.516Z,100306.78
2022-12-16T13:11:51.249Z,100312.48
2022-12-16T13:15:21.278Z,100313.78
2022-12-16T13:18:40.188Z,100314.69
2022-12-16T13:22:00.168Z,100316.77
2022-12-16T13:24:58.647Z,100316.63
2022-12-16T13:28:03.548Z,100319.43
2022-12-16T13:30:55.699Z,100326.52
2022-12-16T13:33:52.385Z,100333.44
2022-12-16T13:36:54.160Z,100340.38
2022-12-16T13:39:46.447Z,100343.05
2022-12-16T13:43:09.664Z,100343.54
2022-12-16T13:46:01.762Z,100350.60
2022-12-16T13:48:55.483Z,100352.17
2022-12-16T13:52:24.399Z,100350.20
2022-12-16T13:55:27.322Z,100347.00
2022-12-16T13:58:22.447Z,100348.96
2022-12-16T14:01:24.165Z,100347.83
2022-12-16T14:04:14.040Z,100343.19
2022-12-16T14:07:03.976Z,100340.01
2022-12-16T14:10:02.105Z,100341.88
2022-12-16T14:13:05.301Z,100346.95
2022-12-16T14:15:59.758Z,100349.73
2022-12-16T14:19:00.416Z,100358.45
2022-12-16T14:21:59.676Z,100360.55
2022-12-16T14:24:50.249Z,100359.73
2022-12-16T14:27:40.886Z,100363.68
2022-12-16T14:30:39.134Z,100363.96
2022-12-16T14:33:45.703Z,100365.61
2022-12-16T14:36:43.914Z,100368.95
2022-12-16T14:39:45.924Z,100379.38
2022-12-16T14:42:41.207Z,100387.96
2022-12-16T14:45:45.273Z,100387.23
2022-12-16T14:48:52.395Z,100384.59
2022-12-16T14:51:47.597Z,100386.86
2022-12-16T14:54:46.324Z,100389.96
2022-12-16T14:57:39.963Z,100395.61
2022-12-16T15:00:36.178Z,100402.09
2022-12-16T15:03:33.812Z,100404.23
2022-12-16T15:06:26.240Z,100404.24
2022-12-16T15:09:20.614Z,100409.36
2022-12-16T15:12:13.514Z,100419.98
2022-12-16T15:15:05.045Z,100421.73
2022-12-16T15:18:02.364Z,100421.95
2022-12-16T15:20:54.416Z,100423.23
2022-12-16T15:23:48.500Z,100424.08
2022-12-16T15:26:39.360Z,100430.66
2022-12-16T15:35:30.343Z,100448.27
2022-12-16T15:38:20.158Z,100447.06
2022-12-16T15:41:11.035Z,100449.77
2022-12-16T15:44:01.013Z,100455.89
2022-12-16T15:46:51.051Z,100456.41
2022-12-16T15:49:45.229Z,100455.62
2022-12-16T15:52:51.862Z,100454.31
2022-12-16T15:55:48.297Z,100459.42
2022-12-16T15:58:48.670Z,100464.96
2022-12-16T16:01:40.629Z,100469.33
2022-12-16T16:04:40.928Z,100471.77
2022-12-16T16:07:35.225Z,100464.58
2022-12-16T16:10:35.216Z,100477.66
2022-12-16T16:13:25.597Z,100475.36
2022-12-16T16:16:15.779Z,100479.46
2022-12-16T16:19:05.235Z,100479.47
2022-12-16T16:21:54.813Z,100481.89
2022-12-16T16:24:44.145Z,100480.06
2022-12-16T16:27:35.369Z,100483.12
2022-12-16T16:30:29.111Z,100490.30
2022-12-16T16:33:33.833Z,100494.50
2022-12-16T16:36:32.726Z,100496.36
2022-12-16T16:39:22.309Z,100499.85
2022-12-16T16:42:11.562Z,100509.62
2022-12-16T16:45:09.348Z,100511.10
2022-12-16T16:47:58.972Z,100510.83
2022-12-16T16:50:48.351Z,100512.23
2022-12-16T16:53:40.416Z,100510.61
2022-12-16T16:56:31.304Z,100512.44
2022-12-16T16:59:20.924Z,100512.67
2022-12-16T17:02:10.176Z,100512.24
2022-12-16T17:04:59.715Z,100512.05
2022-12-16T17:07:53.658Z,100514.31
2022-12-16T17:10:44.184Z,100512.83
2022-12-16T17:13:33.731Z,100513.62
2022-12-16T17:16:23.996Z,100514.91
2022-12-16T17:19:13.694Z,100515.58
2022-12-16T17:22:03.195Z,100521.50
2022-12-16T17:24:54.512Z,100525.17
2022-12-16T17:27:45.689Z,100520.95
2022-12-16T17:30:43.351Z,100515.20
2022-12-16T17:33:37.389Z,100519.09
2022-12-16T17:36:32.006Z,100523.05
2022-12-16T17:39:22.816Z,100527.63
2022-12-16T17:42:12.037Z,100521.66
2022-12-16T17:45:01.691Z,100527.04
2022-12-16T17:47:52.794Z,100530.89
2022-12-16T17:50:42.081Z,100532.17
2022-12-16T17:53:45.737Z,100539.52
2022-12-16T17:56:34.700Z,100537.63
2022-12-16T17:59:24.230Z,100547.56
2022-12-16T18:02:13.942Z,100550.85
2022-12-16T18:05:03.256Z,100549.90
2022-12-16T18:07:52.821Z,100556.99
2022-12-16T18:10:41.965Z,100566.27
2022-12-16T18:13:31.665Z,100569.93
2022-12-16T18:16:21.265Z,100576.88
2022-12-16T18:19:11.394Z,100582.12
2022-12-16T18:22:01.047Z,100579.94
2022-12-16T18:24:50.032Z,100578.86
2022-12-16T18:27:39.276Z,100587.44
2022-12-16T18:30:31.580Z,100587.34
2022-12-16T18:33:21.269Z,100583.27
2022-12-16T18:36:10.372Z,100589.39
2022-12-16T18:38:59.780Z,100589.16
2022-12-16T18:41:53.236Z,100595.02
2022-12-16T18:44:45.131Z,100591.83
2022-12-16T18:47:34.808Z,100594.02
2022-12-16T18:50:29.502Z,100597.63
2022-12-16T18:53:20.967Z,100601.06
2022-12-16T18:56:19.804Z,100607.63
2022-12-16T18:59:09.318Z,100608.15
2022-12-16T19:01:59.903Z,100605.66
2022-12-16T19:04:52.613Z,100609.30
2022-12-16T19:07:42.771Z,100613.23
2022-12-16T19:10:32.421Z,100620.75
2022-12-16T19:13:21.685Z,100615.13
2022-12-16T19:16:18.073Z,100615.17
2022-12-16T19:19:07.684Z,100613.40
2022-12-16T19:21:57.058Z,100612.44
2022-12-16T19:24:47.698Z,100613.34
2022-12-16T19:27:38.034Z,100620.27
2022-12-16T19:30:30.919Z,100621.27
2022-12-16T19:33:21.523Z,100625.98
2022-12-16T19:36:13.540Z,100633.20
2022-12-16T19:39:03.338Z,100636.66
2022-12-16T19:41:53.517Z,100639.64
2022-12-16T19:44:44.541Z,100640.09
2022-12-16T19:47:33.685Z,100643.03
2022-12-16T19:50:23.628Z,100637.85
2022-12-16T19:53:13.238Z,100638.00
2022-12-16T19:56:02.703Z,100639.45
2022-12-16T19:58:51.896Z,100639.98
2022-12-16T20:01:41.559Z,100642.52
2022-12-16T20:04:30.986Z,100644.73
2022-12-16T20:10:29.825Z,100653.23
2022-12-16T20:13:27.143Z,100656.89
2022-12-16T20:16:22.698Z,100664.27
2022-12-16T20:19:12.382Z,100672.38
2022-12-16T20:25:11.565Z,100670.58
2022-12-16T20:28:01.027Z,100676.27
2022-12-16T20:30:50.604Z,100673.61
2022-12-16T20:33:41.389Z,100683.30
2022-12-16T20:36:31.199Z,100688.04
2022-12-16T20:39:22.787Z,100690.56
2022-12-16T20:42:12.239Z,100687.05
2022-12-16T20:45:01.668Z,100692.00
2022-12-16T20:47:51.373Z,100697.77
2022-12-16T20:50:41.060Z,100704.09
2022-12-16T20:53:30.315Z,100702.39
2022-12-16T20:56:22.200Z,100702.53
2022-12-16T20:59:11.764Z,100700.70
2022-12-16T21:02:22.638Z,100705.23
2022-12-16T21:05:12.547Z,100707.89
2022-12-16T21:08:02.338Z,100714.42
2022-12-16T21:10:52.147Z,100716.66
2022-12-16T21:13:44.153Z,100719.48
2022-12-16T21:14:28.715Z,100649.55
2022-12-16T21:16:33.874Z,100730.14
2022-12-16T21:19:26.685Z,100732.55
2022-12-16T21:22:19.966Z,100732.70
2022-12-16T21:25:09.344Z,100731.69
2022-12-16T21:28:10.489Z,100735.11
2022-12-16T21:31:00.248Z,100742.58
2022-12-16T21:33:50.000Z,100744.19
2022-12-16T21:36:39.184Z,100749.52
2022-12-16T21:39:31.236Z,100747.36
2022-12-16T21:42:20.418Z,100751.67
2022-12-16T21:45:09.828Z,100752.33
2022-12-16T21:47:59.548Z,100754.67
2022-12-16T21:50:48.723Z,100759.62
2022-12-16T21:53:35.598Z,100764.31
2022-12-16T21:56:26.814Z,100766.02
2022-12-16T21:59:27.702Z,100771.20
2022-12-16T22:02:16.805Z,100772.52
2022-12-16T22:05:05.989Z,100770.21
2022-12-16T22:07:56.206Z,100772.39
2022-12-16T22:10:45.788Z,100768.41
2022-12-16T22:13:35.560Z,100774.94
2022-12-16T22:16:25.497Z,100780.80
2022-12-16T22:19:15.539Z,100783.88
2022-12-16T22:22:07.105Z,100787.83
2022-12-16T22:24:52.697Z,100795.57
2022-12-16T22:27:42.814Z,100797.16
2022-12-16T22:30:33.193Z,100795.73
2022-12-16T22:33:22.626Z,100797.01
2022-12-16T22:36:12.171Z,100798.23
2022-12-16T22:39:01.872Z,100803.91
2022-12-16T22:41:53.123Z,100808.60
2022-12-16T22:44:42.426Z,100810.68
2022-12-16T22:47:32.264Z,100815.58
2022-12-16T22:50:22.065Z,100826.66
2022-12-16T22:53:11.474Z,100825.77
2022-12-16T22:56:02.191Z,100824.96
2022-12-16T22:58:51.687Z,100826.27
2022-12-16T23:01:41.168Z,100822.06
2022-12-16T23:04:31.042Z,100826.04
2022-12-16T23:07:20.957Z,100824.11
2022-12-16T23:10:11.481Z,100832.23
2022-12-16T23:13:01.161Z,100828.79
2022-12-16T23:15:50.788Z,100828.67
2022-12-16T23:18:40.441Z,100822.88
2022-12-16T23:21:36.222Z,100821.86
2022-12-16T23:24:26.972Z,100824.02
2022-12-16T23:27:19.857Z,100822.21
2022-12-16T23:30:14.531Z,100819.42
2022-12-16T23:33:03.942Z,100822.60
2022-12-16T23:35:53.349Z,100824.15
2022-12-16T23:38:45.081Z,100826.21
2022-12-16T23:41:35.151Z,100823.84
2022-12-16T23:44:24.982Z,100828.60
2022-12-16T23:47:14.962Z,100826.53
2022-12-16T23:50:04.424Z,100834.59
2022-12-16T23:52:53.954Z,100843.14
2022-12-16T23:55:45.399Z,100847.77
2022-12-16T23:58:34.846Z,100858.02
